createdAt,value
2022-09-10T00:01:40.241Z,1.70
2022-09-10T00:04:13.650Z,3.20
2022-09-10T00:06:42.606Z,2.67
2022-09-10T00:09:13.648Z,2.47
2022-09-10T00:11:46.357Z,1.87
2022-09-10T00:14:17.811Z,3.50
2022-09-10T00:16:46.549Z,2.33
2022-09-10T00:19:17.252Z,2.80
2022-09-10T00:21:46.113Z,2.20
2022-09-10T00:24:14.991Z,1.37
2022-09-10T00:26:43.403Z,1.73
2022-09-10T00:29:15.091Z,2.10
2022-09-10T00:31:44.801Z,1.47
2022-09-10T00:34:15.064Z,2.00
2022-09-10T00:36:45.140Z,4.30
2022-09-10T00:39:17.040Z,2.23
2022-09-10T00:41:48.649Z,2.10
2022-09-10T00:44:59.552Z,2.20
2022-09-10T00:47:34.699Z,1.40
2022-09-10T00:50:16.182Z,3.90
2022-09-10T00:52:47.352Z,1.70
2022-09-10T00:55:17.431Z,1.70
2022-09-10T00:57:50.029Z,2.30
2022-09-10T01:00:19.185Z,2.73
2022-09-10T01:02:48.153Z,2.40
2022-09-10T01:05:18.317Z,2.10
2022-09-10T01:07:49.059Z,2.20
2022-09-10T01:10:26.153Z,1.67
2022-09-10T01:13:29.071Z,1.47
2022-09-10T01:16:09.843Z,3.50
2022-09-10T01:18:54.577Z,1.90
2022-09-10T01:21:36.353Z,3.10
2022-09-10T01:24:51.561Z,1.80
2022-09-10T01:27:45.320Z,2.13
2022-09-10T01:30:19.636Z,2.53
2022-09-10T01:33:05.595Z,1.80
2022-09-10T01:35:44.833Z,3.33
2022-09-10T01:38:19.681Z,2.37
2022-09-10T01:40:49.508Z,2.73
2022-09-10T01:43:23.236Z,2.77
2022-09-10T01:46:19.827Z,1.87
2022-09-10T01:49:10.593Z,3.97
2022-09-10T01:52:05.627Z,2.93
2022-09-10T01:54:56.421Z,1.97
2022-09-10T01:57:41.622Z,4.00
2022-09-10T02:00:15.216Z,2.40
2022-09-10T02:02:53.132Z,3.40
2022-09-10T02:05:24.551Z,3.57
2022-09-10T02:08:04.144Z,2.13
2022-09-10T02:10:33.176Z,1.80
2022-09-10T02:13:01.571Z,1.40
2022-09-10T02:15:59.383Z,2.10
2022-09-10T02:18:35.220Z,2.87
2022-09-10T02:21:04.567Z,4.03
2022-09-10T02:23:40.519Z,2.80
2022-09-10T02:26:09.977Z,2.83
2022-09-10T02:28:39.356Z,2.70
2022-09-10T02:31:09.069Z,2.70
2022-09-10T02:33:37.480Z,2.97
2022-09-10T02:36:06.563Z,2.43
2022-09-10T02:38:35.445Z,2.23
2022-09-10T02:41:04.060Z,3.07
2022-09-10T02:43:38.165Z,1.77
2022-09-10T02:46:08.760Z,1.87
2022-09-10T02:48:39.950Z,4.07
2022-09-10T02:51:09.856Z,2.67
2022-09-10T02:53:39.652Z,2.47
2022-09-10T02:56:09.346Z,1.53
2022-09-10T02:58:38.968Z,2.50
2022-09-10T03:01:12.753Z,4.23
2022-09-10T03:03:41.938Z,1.83
2022-09-10T03:06:11.383Z,5.23
2022-09-10T03:08:40.101Z,1.57
2022-09-10T03:11:08.980Z,3.70
2022-09-10T03:13:37.611Z,1.80
2022-09-10T03:16:07.464Z,2.23
2022-09-10T03:18:37.433Z,2.37
2022-09-10T03:21:11.259Z,3.33
2022-09-10T03:23:40.414Z,2.90
2022-09-10T03:26:10.595Z,2.37
2022-09-10T03:28:39.594Z,2.17
2022-09-10T03:31:09.646Z,3.40
2022-09-10T03:33:46.022Z,1.73
2022-09-10T03:36:15.944Z,1.90
2022-09-10T03:38:45.832Z,4.03
2022-09-10T03:41:14.920Z,2.37
2022-09-10T03:43:43.727Z,1.60
2022-09-10T03:46:13.136Z,4.00
2022-09-10T03:48:45.596Z,3.63
2022-09-10T03:51:15.980Z,2.57
2022-09-10T03:53:44.389Z,1.80
2022-09-10T03:56:13.288Z,3.40
2022-09-10T03:58:43.042Z,3.37
2022-09-10T04:01:12.202Z,1.87
2022-09-10T04:03:48.190Z,2.63
2022-09-10T04:06:17.346Z,2.63
2022-09-10T04:08:45.603Z,1.63
2022-09-10T04:11:16.944Z,2.50
2022-09-10T04:13:57.787Z,3.43
2022-09-10T04:16:32.314Z,1.83
2022-09-10T04:19:02.587Z,3.53
2022-09-10T04:21:31.511Z,1.50
2022-09-10T04:24:00.632Z,3.23
2022-09-10T04:26:29.118Z,3.37
2022-09-10T04:28:57.510Z,3.13
2022-09-10T04:31:26.161Z,2.83
2022-09-10T04:34:01.943Z,1.40
2022-09-10T04:36:32.111Z,2.47
2022-09-10T04:39:00.504Z,4.97
2022-09-10T04:41:30.177Z,3.37
2022-09-10T04:43:59.925Z,3.53
2022-09-10T04:46:28.830Z,2.33
2022-09-10T04:49:00.248Z,2.83
2022-09-10T04:51:29.187Z,2.40
2022-09-10T04:53:59.820Z,1.80
2022-09-10T04:56:33.247Z,2.17
2022-09-10T04:59:01.670Z,2.97
2022-09-10T05:01:34.806Z,2.80
2022-09-10T05:04:03.709Z,2.50
2022-09-10T05:06:32.932Z,2.20
2022-09-10T05:09:03.088Z,2.97
2022-09-10T05:11:32.313Z,4.87
2022-09-10T05:14:01.455Z,5.30
2022-09-10T05:16:31.505Z,3.17
2022-09-10T05:19:00.068Z,3.10
2022-09-10T05:21:31.128Z,1.10
2022-09-10T05:24:00.049Z,1.63
2022-09-10T05:26:30.224Z,2.03
2022-09-10T05:29:00.304Z,2.17
2022-09-10T05:31:29.020Z,1.30
2022-09-10T05:33:59.296Z,2.57
2022-09-10T05:36:27.836Z,2.33
2022-09-10T05:38:56.182Z,2.30
2022-09-10T05:41:25.466Z,1.83
2022-09-10T05:43:57.263Z,2.73
2022-09-10T05:46:26.016Z,3.17
2022-09-10T05:48:58.936Z,2.03
2022-09-10T05:51:30.124Z,3.90
2022-09-10T05:54:03.315Z,2.73
2022-09-10T05:56:34.690Z,1.97
2022-09-10T05:59:05.554Z,3.03
2022-09-10T06:01:35.162Z,1.37
2022-09-10T06:04:06.198Z,2.27
2022-09-10T06:06:34.500Z,2.07
2022-09-10T06:09:08.361Z,1.23
2022-09-10T06:11:52.002Z,2.30
2022-09-10T06:14:24.429Z,1.93
2022-09-10T06:16:53.513Z,3.63
2022-09-10T06:19:22.780Z,2.07
2022-09-10T06:21:53.210Z,1.80
2022-09-10T06:24:23.495Z,1.93
2022-09-10T06:26:55.760Z,1.90
2022-09-10T06:29:26.966Z,3.17
2022-09-10T06:31:55.918Z,2.97
2022-09-10T06:34:24.736Z,1.73
2022-09-10T06:36:55.196Z,3.07
2022-09-10T06:39:23.864Z,1.70
2022-09-10T06:41:57.559Z,1.30
2022-09-10T06:44:46.085Z,2.23
2022-09-10T06:50:23.075Z,1.83
2022-09-10T06:52:53.109Z,1.83
2022-09-10T06:55:23.020Z,1.37
2022-09-10T06:57:51.931Z,2.07
2022-09-10T07:00:22.173Z,2.27
2022-09-10T07:02:54.126Z,3.93
2022-09-10T07:05:23.841Z,4.03
2022-09-10T07:07:54.851Z,3.13
2022-09-10T07:10:24.087Z,3.67
2022-09-10T07:12:53.277Z,2.70
2022-09-10T07:15:24.937Z,2.57
2022-09-10T07:17:53.240Z,2.83
2022-09-10T07:20:28.500Z,2.97
2022-09-10T07:22:58.666Z,2.70
2022-09-10T07:25:28.923Z,3.43
2022-09-10T07:28:05.695Z,3.90
2022-09-10T07:30:38.343Z,2.00
2022-09-10T07:33:07.713Z,2.53
2022-09-10T07:35:37.204Z,2.40
2022-09-10T07:38:07.827Z,2.40
2022-09-10T07:40:41.535Z,1.63
2022-09-10T07:43:11.175Z,3.50
2022-09-10T07:45:42.719Z,2.53
2022-09-10T07:48:13.152Z,2.03
2022-09-10T07:50:42.177Z,2.23
2022-09-10T07:53:11.164Z,2.60
2022-09-10T07:55:40.202Z,4.17
2022-09-10T07:58:10.055Z,2.60
2022-09-10T08:00:44.592Z,1.43
2022-09-10T08:03:13.663Z,2.43
2022-09-10T08:05:42.005Z,5.63
2022-09-10T08:08:11.221Z,3.73
2022-09-10T08:10:40.268Z,2.33
2022-09-10T08:13:10.012Z,2.77
2022-09-10T08:15:44.919Z,2.13
2022-09-10T08:18:14.701Z,1.50
2022-09-10T08:20:43.446Z,2.07
2022-09-10T08:23:11.800Z,1.27
2022-09-10T08:25:40.279Z,3.67
2022-09-10T08:28:10.432Z,3.57
2022-09-10T08:30:39.598Z,1.47
2022-09-10T08:33:10.238Z,2.77
2022-09-10T08:35:41.452Z,1.37
2022-09-10T08:38:10.209Z,1.77
2022-09-10T08:40:43.141Z,2.30
2022-09-10T08:43:14.068Z,1.50
2022-09-10T08:45:52.858Z,1.33
2022-09-10T08:48:29.119Z,1.50
2022-09-10T08:51:09.637Z,2.13
2022-09-10T08:53:50.778Z,1.03
2022-09-10T08:56:24.171Z,1.70
2022-09-10T08:59:03.864Z,1.37
2022-09-10T09:01:43.340Z,1.17
2022-09-10T09:04:29.674Z,4.13
2022-09-10T09:07:05.720Z,1.50
2022-09-10T09:09:34.657Z,1.90
2022-09-10T09:12:19.579Z,1.83
2022-09-10T09:15:11.157Z,1.23
2022-09-10T09:18:10.802Z,2.70
2022-09-10T09:20:47.103Z,0.57
2022-09-10T09:23:23.798Z,1.60
2022-09-10T09:25:59.030Z,2.40
2022-09-10T09:28:40.806Z,1.90
2022-09-10T09:31:18.033Z,1.10
2022-09-10T09:33:49.914Z,1.23
2022-09-10T09:36:31.124Z,2.73
2022-09-10T09:39:00.015Z,1.57
2022-09-10T09:41:40.000Z,2.27
2022-09-10T09:44:26.457Z,1.73
2022-09-10T09:46:55.105Z,1.07
2022-09-10T09:49:26.172Z,1.60
2022-09-10T09:51:58.706Z,1.70
2022-09-10T09:57:21.657Z,1.10
2022-09-10T09:59:51.884Z,1.60
2022-09-10T10:02:23.663Z,1.97
2022-09-10T10:05:07.100Z,5.23
2022-09-10T10:07:37.300Z,2.10
2022-09-10T10:10:08.323Z,1.67
2022-09-10T10:12:50.587Z,1.47
2022-09-10T10:15:37.636Z,0.90
2022-09-10T10:18:31.830Z,5.17
2022-09-10T10:21:17.281Z,1.53
2022-09-10T10:23:49.104Z,0.80
2022-09-10T10:26:26.905Z,1.00
2022-09-10T10:29:00.097Z,1.93
2022-09-10T10:31:41.063Z,2.07
2022-09-10T10:34:40.863Z,1.50
2022-09-10T10:37:17.748Z,2.23
2022-09-10T10:40:11.724Z,1.53
2022-09-10T10:42:50.423Z,1.57
2022-09-10T10:45:38.093Z,1.50
2022-09-10T10:48:13.007Z,1.77
2022-09-10T10:50:54.416Z,0.90
2022-09-10T10:53:43.175Z,2.40
2022-09-10T10:56:26.000Z,2.00
2022-09-10T10:59:17.461Z,2.57
2022-09-10T11:01:54.678Z,0.70
2022-09-10T11:04:35.523Z,0.73
2022-09-10T11:07:14.456Z,1.27
2022-09-10T11:09:52.892Z,0.40
2022-09-10T11:12:34.824Z,0.77
2022-09-10T11:15:23.847Z,0.87
2022-09-10T11:18:00.751Z,0.93
2022-09-10T11:20:36.335Z,0.87
2022-09-10T11:23:22.966Z,3.67
2022-09-10T11:26:02.369Z,1.93
2022-09-10T11:28:39.567Z,3.77
2022-09-10T11:31:17.285Z,1.57
2022-09-10T11:33:56.348Z,1.73
2022-09-10T11:36:32.078Z,1.67
2022-09-10T11:39:15.096Z,0.60
2022-09-10T11:41:48.000Z,0.73
2022-09-10T11:44:43.901Z,1.67
2022-09-10T11:47:23.063Z,0.90
2022-09-10T11:49:59.765Z,2.63
2022-09-10T11:52:30.882Z,1.40
2022-09-10T11:55:00.317Z,0.90
2022-09-10T11:57:42.404Z,1.87
2022-09-10T12:00:17.109Z,1.97
2022-09-10T12:03:14.485Z,1.00
2022-09-10T12:05:57.261Z,1.10
2022-09-10T12:08:45.785Z,1.83
2022-09-10T12:11:27.220Z,2.93
2022-09-10T12:13:57.489Z,1.07
2022-09-10T12:16:37.315Z,2.47
2022-09-10T12:19:16.331Z,1.67
2022-09-10T12:21:52.482Z,1.53
2022-09-10T12:24:30.890Z,1.93
2022-09-10T12:27:01.397Z,1.43
2022-09-10T12:29:34.444Z,2.70
2022-09-10T12:32:30.655Z,1.77
2022-09-10T12:35:41.719Z,1.60
2022-09-10T12:38:55.120Z,1.20
2022-09-10T12:42:03.166Z,1.37
2022-09-10T12:44:47.598Z,0.50
2022-09-10T12:47:44.893Z,0.70
2022-09-10T12:50:34.564Z,3.03
2022-09-10T12:53:59.353Z,1.67
2022-09-10T12:56:52.695Z,0.70
2022-09-10T12:59:52.461Z,1.37
2022-09-10T13:02:29.729Z,1.33
2022-09-10T13:05:06.063Z,1.30
2022-09-10T13:07:41.651Z,1.10
2022-09-10T13:10:22.279Z,2.33
2022-09-10T13:12:56.031Z,1.30
2022-09-10T13:15:29.895Z,1.77
2022-09-10T13:18:26.089Z,2.70
2022-09-10T13:20:56.491Z,1.67
2022-09-10T13:23:48.512Z,2.20
2022-09-10T13:26:52.304Z,1.67
2022-09-10T13:29:47.023Z,1.50
2022-09-10T13:32:29.896Z,2.13
2022-09-10T13:35:42.681Z,1.80
2022-09-10T13:38:39.029Z,3.03
2022-09-10T13:41:48.410Z,3.03
2022-09-10T13:44:47.960Z,3.90
2022-09-10T13:47:25.676Z,1.63
2022-09-10T13:50:01.324Z,1.60
2022-09-10T13:52:36.288Z,1.70
2022-09-10T13:55:08.525Z,2.20
2022-09-10T13:57:41.902Z,1.50
2022-09-10T14:00:23.673Z,1.17
2022-09-10T14:02:54.905Z,1.30
2022-09-10T14:05:40.730Z,1.40
2022-09-10T14:08:19.603Z,1.40
2022-09-10T14:11:01.335Z,1.60
2022-09-10T14:13:36.831Z,2.90
2022-09-10T14:16:10.017Z,1.90
2022-09-10T14:18:46.665Z,1.80
2022-09-10T14:21:19.363Z,1.60
2022-09-10T14:23:50.111Z,1.23
2022-09-10T14:26:24.671Z,1.47
2022-09-10T14:28:57.476Z,2.67
2022-09-10T14:31:35.756Z,1.30
2022-09-10T14:34:30.945Z,1.73
2022-09-10T14:37:01.494Z,2.23
2022-09-10T14:39:30.273Z,1.47
2022-09-10T14:42:25.192Z,2.53
2022-09-10T14:44:54.747Z,1.73
2022-09-10T14:47:32.397Z,2.90
2022-09-10T14:50:31.640Z,2.10
2022-09-10T14:53:00.091Z,3.47
2022-09-10T14:55:33.977Z,1.77
2022-09-10T14:58:03.612Z,2.30
2022-09-10T15:00:32.828Z,1.93
2022-09-10T15:03:01.258Z,2.07
2022-09-10T15:05:30.596Z,2.37
2022-09-10T15:07:59.462Z,1.93
2022-09-10T15:10:27.872Z,1.40
2022-09-10T15:12:56.554Z,1.17
2022-09-10T15:15:28.053Z,2.03
2022-09-10T15:17:57.251Z,2.70
2022-09-10T15:20:27.962Z,2.00
2022-09-10T15:22:56.962Z,1.87
2022-09-10T15:25:38.409Z,2.57
2022-09-10T15:28:07.884Z,2.00
2022-09-10T15:30:37.668Z,2.07
2022-09-10T15:33:09.508Z,3.00
2022-09-10T15:35:39.892Z,0.80
2022-09-10T15:38:13.471Z,1.13
2022-09-10T15:40:41.767Z,1.77
2022-09-10T15:43:10.970Z,1.10
2022-09-10T15:45:41.072Z,1.67
2022-09-10T15:48:10.509Z,1.77
2022-09-10T15:50:39.777Z,0.87
2022-09-10T15:53:11.700Z,1.77
2022-09-10T15:55:40.889Z,1.43
2022-09-10T15:58:09.416Z,1.50
2022-09-10T16:00:37.709Z,1.23
2022-09-10T16:03:07.949Z,1.93
2022-09-10T16:05:36.235Z,1.27
2022-09-10T16:08:04.704Z,1.57
2022-09-10T16:10:33.357Z,2.53
2022-09-10T16:13:01.705Z,2.27
2022-09-10T16:15:29.953Z,3.13
2022-09-10T16:18:00.449Z,2.83
2022-09-10T16:20:31.024Z,2.50
2022-09-10T16:22:59.500Z,3.40
2022-09-10T16:25:29.993Z,3.17
2022-09-10T16:27:59.050Z,5.00
2022-09-10T16:30:28.199Z,3.03
2022-09-10T16:32:56.842Z,2.30
2022-09-10T16:35:26.417Z,2.40
2022-09-10T16:37:57.036Z,2.30
2022-09-10T16:40:25.295Z,5.40
2022-09-10T16:42:53.709Z,4.50
2022-09-10T16:45:22.499Z,3.63
2022-09-10T16:47:51.743Z,3.90
2022-09-10T16:50:20.576Z,2.77
2022-09-10T16:52:49.616Z,2.77
2022-09-10T16:55:19.502Z,2.90
2022-09-10T16:57:47.851Z,2.10
2022-09-10T17:00:16.721Z,2.17
2022-09-10T17:02:45.085Z,2.03
2022-09-10T17:05:13.400Z,3.13
2022-09-10T17:07:41.624Z,3.50
2022-09-10T17:10:10.971Z,3.67
2022-09-10T17:12:42.844Z,2.30
2022-09-10T17:15:12.033Z,2.90
2022-09-10T17:17:40.730Z,2.57
2022-09-10T17:20:10.918Z,4.30
2022-09-10T17:22:39.548Z,2.10
2022-09-10T17:25:08.819Z,3.43
2022-09-10T17:27:37.092Z,3.03
2022-09-10T17:30:08.804Z,2.40
2022-09-10T17:32:37.065Z,4.20
2022-09-10T17:35:06.500Z,3.20
2022-09-10T17:37:34.781Z,6.00
2022-09-10T17:40:03.681Z,3.93
2022-09-10T17:42:32.103Z,2.80
2022-09-10T17:45:01.024Z,4.27
2022-09-10T17:47:31.312Z,4.53
2022-09-10T17:49:59.916Z,3.77
2022-09-10T17:52:28.578Z,4.80
2022-09-10T17:54:57.758Z,3.20
2022-09-10T17:57:26.019Z,2.67
2022-09-10T17:59:54.936Z,4.50
2022-09-10T18:02:23.857Z,2.87
2022-09-10T18:04:53.498Z,3.33
2022-09-10T18:07:22.346Z,5.63
2022-09-10T18:09:52.057Z,3.63
2022-09-10T18:12:20.317Z,2.93
2022-09-10T18:14:49.091Z,3.40
2022-09-10T18:17:17.321Z,3.50
2022-09-10T18:19:45.720Z,5.33
2022-09-10T18:22:15.398Z,4.93
2022-09-10T18:24:44.310Z,3.80
2022-09-10T18:27:12.548Z,4.27
2022-09-10T18:29:42.929Z,4.03
2022-09-10T18:32:11.189Z,5.67
2022-09-10T18:34:40.490Z,4.77
2022-09-10T18:37:09.751Z,5.17
2022-09-10T18:39:39.915Z,3.90
2022-09-10T18:42:08.940Z,4.87
2022-09-10T18:44:37.772Z,4.20
2022-09-10T18:47:17.718Z,4.90
2022-09-10T18:49:51.491Z,4.67
2022-09-10T18:52:20.918Z,4.57
2022-09-10T18:54:51.766Z,5.17
2022-09-10T18:57:20.528Z,5.10
2022-09-10T18:59:49.919Z,6.67
2022-09-10T19:02:19.962Z,6.00
2022-09-10T19:05:09.698Z,5.97
2022-09-10T19:07:37.268Z,5.70
2022-09-10T19:10:08.882Z,6.57
2022-09-10T19:12:37.111Z,4.40
2022-09-10T19:15:06.289Z,4.90
2022-09-10T19:17:34.541Z,4.97
2022-09-10T19:20:03.546Z,4.63
2022-09-10T19:22:31.801Z,4.23
2022-09-10T19:25:01.339Z,4.40
2022-09-10T19:27:34.180Z,4.67
2022-09-10T19:30:02.526Z,5.50
2022-09-10T19:32:30.757Z,4.20
2022-09-10T19:34:59.850Z,4.93
2022-09-10T19:37:28.687Z,5.43
2022-09-10T19:39:56.993Z,2.80
2022-09-10T19:42:25.601Z,4.77
2022-09-10T19:44:56.031Z,2.50
2022-09-10T19:47:24.465Z,2.80
2022-09-10T19:49:52.952Z,4.37
2022-09-10T19:52:24.311Z,3.90
2022-09-10T19:54:52.562Z,2.37
2022-09-10T19:57:21.628Z,3.00
2022-09-10T19:59:50.592Z,2.83
2022-09-10T20:02:20.572Z,2.80
2022-09-10T20:04:49.393Z,3.90
2022-09-10T20:07:17.619Z,7.33
2022-09-10T20:09:46.961Z,13.47
2022-09-10T20:12:16.175Z,13.03
2022-09-10T20:14:44.475Z,6.97
2022-09-10T20:17:13.342Z,12.63
2022-09-10T20:19:43.588Z,9.27
2022-09-10T20:22:12.164Z,5.27
2022-09-10T20:24:40.415Z,5.67
2022-09-10T20:27:08.662Z,5.10
2022-09-10T20:29:36.977Z,5.37
2022-09-10T20:32:05.771Z,4.77
2022-09-10T20:34:35.124Z,3.73
2022-09-10T20:37:04.975Z,4.57
2022-09-10T20:39:34.634Z,4.43
2022-09-10T20:42:04.622Z,3.73
2022-09-10T20:44:32.887Z,3.80
2022-09-10T20:47:03.402Z,4.80
2022-09-10T20:49:31.684Z,5.13
2022-09-10T20:52:00.111Z,12.10
2022-09-10T20:54:30.256Z,12.20
2022-09-10T20:56:59.036Z,12.83
2022-09-10T20:59:28.011Z,11.13
2022-09-10T21:01:56.576Z,4.53
2022-09-10T21:04:24.916Z,5.10
2022-09-10T21:06:53.172Z,5.77
2022-09-10T21:09:22.193Z,5.70
2022-09-10T21:11:51.768Z,4.17
2022-09-10T21:14:20.004Z,11.70
2022-09-10T21:16:48.803Z,11.40
2022-09-10T21:19:18.687Z,21.17
2022-09-10T21:21:48.713Z,22.43
2022-09-10T21:24:20.156Z,20.73
2022-09-10T21:26:53.557Z,19.27
2022-09-10T21:29:23.113Z,16.13
2022-09-10T21:31:54.495Z,10.77
2022-09-10T21:34:23.344Z,12.43
2022-09-10T21:36:52.125Z,9.87
2022-09-10T21:39:20.520Z,7.73
2022-09-10T21:41:51.559Z,7.63
2022-09-10T21:44:24.886Z,11.37
2022-09-10T21:46:53.932Z,17.77
2022-09-10T21:49:22.398Z,17.57
2022-09-10T21:51:51.230Z,19.13
2022-09-10T21:54:24.182Z,17.43
2022-09-10T21:56:55.511Z,9.47
2022-09-10T21:59:26.706Z,8.17
2022-09-10T22:01:55.371Z,4.43
2022-09-10T22:04:24.302Z,3.00
2022-09-10T22:06:53.861Z,2.43
2022-09-10T22:09:24.230Z,3.90
2022-09-10T22:11:56.617Z,2.57
2022-09-10T22:14:26.073Z,4.80
2022-09-10T22:16:55.192Z,5.07
2022-09-10T22:19:27.272Z,5.83
2022-09-10T22:21:56.755Z,6.10
2022-09-10T22:24:26.008Z,11.47
2022-09-10T22:26:55.774Z,11.07
2022-09-10T22:29:25.131Z,14.40
2022-09-10T22:31:53.660Z,12.13
2022-09-10T22:34:22.569Z,12.27
2022-09-10T22:36:50.973Z,9.33
2022-09-10T22:39:21.456Z,6.10
2022-09-10T22:41:51.584Z,5.17
2022-09-10T22:44:23.096Z,9.47
2022-09-10T22:46:52.018Z,4.73
2022-09-10T22:49:21.835Z,3.43
2022-09-10T22:51:50.685Z,3.90
2022-09-10T22:54:19.660Z,5.93
2022-09-10T22:56:48.290Z,3.77
2022-09-10T22:59:17.350Z,5.73
2022-09-10T23:01:48.172Z,6.77
2022-09-10T23:04:17.132Z,5.50
2022-09-10T23:06:45.927Z,6.83
2022-09-10T23:09:16.376Z,4.07
2022-09-10T23:11:45.958Z,4.90
2022-09-10T23:14:19.108Z,3.23
2022-09-10T23:16:51.722Z,3.13
2022-09-10T23:19:22.991Z,3.57
2022-09-10T23:21:54.676Z,3.57
2022-09-10T23:24:26.294Z,3.93
2022-09-10T23:26:56.009Z,3.20
2022-09-10T23:29:24.831Z,2.90
2022-09-10T23:31:54.425Z,3.27
2022-09-10T23:34:23.854Z,3.33
2022-09-10T23:36:53.783Z,3.53
2022-09-10T23:39:25.295Z,3.20
2022-09-10T23:41:57.608Z,3.30
2022-09-10T23:44:26.746Z,4.20
2022-09-10T23:46:57.039Z,5.63
2022-09-10T23:49:25.362Z,5.57
2022-09-10T23:51:54.254Z,3.77
2022-09-10T23:54:22.492Z,3.70
2022-09-10T23:56:51.360Z,4.90
2022-09-10T23:59:20.013Z,3.50
